Ansley, Mississippi
Current Conditions -  °F | °C
As of 1:53 PM on Sunday 21 Dec 2014 (Local Time) from KASD Reporting Station
Scattered Clouds Scattered Clouds  
Wind Chill: 59°   Ceiling: Unl
Heat Index: 59°   Visibility: 10mi
Dew Point: 51°   Wind: 5mph
Humidity: 75%   Direction: 180°S
Pressure: 30.02"   Gusts: NA
Location:  30.2253°N, 89.4838°W
Report Text: KASD 211953Z AUTO 18004KT 10SM SCT019 15/11 A3002 RMK AO2 SLP165 T01500106
Loading
Personal Weather Stations






























Interactive Weather Map New forecast layout! Learn more

10-Day Weather Forecast

Advertisements
Track Severe Weather on mobile